< Cyclone 201824 2019 Season Cyclone 201905 >
Cyclone 201904 (Owen)
General InformationTrack Information on Google MapsDetailed Wind InformationList of All Images || ResourceGoogle EarthGE AnimationAtom FeedGeoJSON
Detalied Best Track (Time Zone = UTC)
Year Month Day Hour Lat. Long. Pressure (hPa) Wind (kt) Class Image Chart
2018 11 29 21 -8.2 155.6 1009 20 2 Image --
2018 11 30 00 -8.6 155.6 1007 20 2 Image --
2018 11 30 03 -9.2 155.6 1006 20 2 Image --
2018 11 30 06 -9.8 155.5 1006 20 2 Image --
2018 11 30 12 -10.3 154.9 1005 25 2 Image --
2018 11 30 18 -10.9 154.5 1004 25 2 Image --
2018 12 1 00 -11.3 154.5 1003 25 2 Image --
2018 12 1 06 -11.7 154.5 1002 25 2 Image --
2018 12 1 12 -12.2 154.4 1001 25 2 Image --
2018 12 1 18 -12.8 154.3 1000 25 2 Image --
2018 12 2 00 -13.6 154.3 1003 30 2 Image --
2018 12 2 03 -13.8 154.4 1001 30 2 Image --
2018 12 2 06 -14.0 154.5 998 35 3 Image --
2018 12 2 12 -14.5 154.7 995 40 3 Image --
2018 12 2 18 -15.1 154.9 995 40 3 Image --
2018 12 3 00 -15.5 155.1 995 45 3 Image --
2018 12 3 06 -15.6 155.4 993 45 3 Image --
2018 12 3 12 -15.7 155.8 991 45 3 Image --
2018 12 3 18 -15.9 156.2 992 45 3 Image --
2018 12 4 00 -15.8 155.4 996 35 3 Image --
2018 12 4 03 -15.5 154.9 998 35 3 Image --
2018 12 8 00 -15.5 149.7 1001 34 0 Image --
2018 12 8 06 -15.9 149.4 1000 33 0 Image --
2018 12 8 12 -16.2 148.6 1001 32 0 Image --
2018 12 8 18 -16.3 147.6 997 31 0 Image --
2018 12 9 00 -16.0 147.3 999 30 2 Image --
2018 12 9 06 -16.1 147.0 999 30 2 Image --
2018 12 9 12 -16.0 146.5 997 30 2 Image --
2018 12 9 18 -16.3 145.5 998 30 2 Image --
2018 12 9 21 -16.0 144.4 999 20 2 Image --
2018 12 10 00 -15.8 143.7 999 20 2 Image --
2018 12 10 03 -15.9 143.4 999 20 2 Image --
2018 12 10 06 -15.8 142.9 999 20 2 Image --
2018 12 10 09 -15.7 142.1 1001 20 2 Image --
2018 12 10 12 -15.6 141.7 1001 20 2 Image --
2018 12 10 15 -15.4 141.3 1002 25 2 Image --
2018 12 10 18 -15.3 140.8 1001 25 2 Image --
2018 12 10 21 -15.3 140.4 1002 25 2 Image --
2018 12 11 00 -15.3 140.0 1000 30 2 Image --
2018 12 11 03 -15.2 139.5 999 30 2 Image --
2018 12 11 06 -15.0 139.2 999 30 2 Image --
2018 12 11 09 -15.0 139.0 996 35 3 Image --
2018 12 11 12 -14.8 138.8 993 40 3 Image --
2018 12 11 15 -14.8 138.4 993 40 3 Image --
2018 12 11 18 -14.7 137.9 994 40 3 Image --
2018 12 11 21 -14.7 137.8 990 45 3 Image --
2018 12 12 00 -14.7 137.6 986 50 4 Image --
2018 12 12 03 -14.7 137.4 985 50 4 Image --
2018 12 12 06 -14.8 137.1 985 50 4 Image --
2018 12 12 09 -14.8 136.8 985 50 4 Image --
2018 12 12 12 -14.8 136.6 978 60 4 Image --
2018 12 12 15 -14.9 136.4 978 60 4 Image --
2018 12 12 18 -15.1 136.1 978 60 4 Image --
2018 12 12 21 -15.2 136.0 961 80 5 Image --
2018 12 13 00 -15.2 135.9 960 80 5 Image --
2018 12 13 03 -15.1 135.9 958 80 5 Image --
2018 12 13 06 -15.0 136.1 961 75 5 Image --
2018 12 13 09 -15.0 136.6 965 75 5 Image --
2018 12 13 12 -15.0 136.9 967 75 5 Image --
2018 12 13 15 -15.1 137.1 966 75 5 Image --
2018 12 13 18 -15.2 137.3 965 75 5 Image --
2018 12 13 21 -15.1 137.5 965 75 5 Image --
2018 12 14 00 -15.1 137.9 966 75 5 Image --
2018 12 14 03 -15.0 138.5 966 75 5 Image --
2018 12 14 06 -14.9 138.9 966 75 5 Image --
2018 12 14 09 -15.0 139.8 970 65 5 Image --
2018 12 14 12 -15.2 140.6 975 65 5 Image --
2018 12 14 15 -15.7 141.1 975 65 5 Image --
2018 12 14 17 -16.1 141.4 975 65 5 Image --
2018 12 14 18 -16.2 141.6 984 55 4 Image --
2018 12 14 21 -16.7 142.1 987 50 4 Image --
2018 12 15 00 -16.9 142.6 989 45 3 Image --
2018 12 15 03 -17.2 143.2 997 35 3 Image --
2018 12 15 06 -17.5 144.0 998 33 2 Image --
2018 12 15 12 -17.7 145.2 996 30 2 Image --
2018 12 15 16 -17.7 146.1 996 30 2 Image --
2018 12 15 18 -17.9 146.6 996 30 2 Image --
2018 12 15 21 -18.3 147.1 996 30 2 Image --
2018 12 16 00 -18.6 147.7 996.55554 0 0 Image --
2018 12 16 06 -19.2 149.6 997.1111 0 0 Image --
2018 12 17 00 -21.0 150.5 997.6667 0 0 Image --
2018 12 17 06 -20.5 150.9 998.2222 0 0 Image --
2018 12 18 00 -19.6 152.5 998.7778 0 0 Image --
2018 12 18 06 -19.7 153.0 999.3333 0 0 Image --
2018 12 19 00 -19.8 152.5 999.8889 0 0 Image --
2018 12 19 06 -19.3 151.8 1000.44446 0 0 Image --
2018 12 20 00 -17.0 150.6 1001 0 0 Image --
2018 12 20 06 -17.0 150.0 1001 0 0 Image --
< Cyclone 201824 2019 Season Cyclone 201905 >

Help